sensor_id;sensor_type;location;lat;lon;timestamp;pressure;altitude;pressure_sealevel;temperature;humidity
73316;BME280;61545;53.726;-0.444;2024-01-10T00:04:10;1032.2;;;3.3;100.0
73316;BME280;61545;53.726;-0.444;2024-01-10T00:09:10;1032.1;;;3.3;100.0
73316;BME280;61545;53.726;-0.444;2024-01-10T00:14:10;1032.0;;;3.4;100.0
73316;BME280;61545;53.726;-0.444;2024-01-10T00:19:10;1032.1;;;3.3;100.0
73316;BME280;61545;53.726;-0.444;2024-01-10T00:24:10;1032.0;;;3.4;100.0
73316;BME280;61545;53.726;-0.444;2024-01-10T00:29:10;1032.0;;;3.5;100.0
73316;BME280;61545;53.726;-0.444;2024-01-10T00:34:10;1031.9;;;3.5;100.0
73316;BME280;61545;53.726;-0.444;2024-01-10T00:39:10;1031.8;;;3.5;100.0
73316;BME280;61545;53.726;-0.444;2024-01-10T00:44:10;1031.8;;;3.5;100.0
73316;BME280;61545;53.726;-0.444;2024-01-10T00:49:10;1031.7;;;3.5;100.0
73316;BME280;61545;53.726;-0.444;2024-01-10T00:54:10;1031.8;;;3.6;100.0
73316;BME280;61545;53.726;-0.444;2024-01-10T00:59:10;1031.7;;;3.7;100.0
73316;BME280;61545;53.726;-0.444;2024-01-10T01:04:10;1031.7;;;3.6;100.0
73316;BME280;61545;53.726;-0.444;2024-01-10T01:09:10;1031.7;;;3.7;100.0
73316;BME280;61545;53.726;-0.444;2024-01-10T01:14:10;1031.6;;;3.7;100.0
73316;BME280;61545;53.726;-0.444;2024-01-10T01:19:10;1031.6;;;3.7;100.0
73316;BME280;61545;53.726;-0.444;2024-01-10T01:24:10;1031.5;;;3.8;100.0
73316;BME280;61545;53.726;-0.444;2024-01-10T01:29:10;1031.5;;;3.8;100.0
73316;BME280;61545;53.726;-0.444;2024-01-10T01:34:10;1031.6;;;3.8;100.0
73316;BME280;61545;53.726;-0.444;2024-01-10T01:39:10;1031.5;;;3.8;100.0
73316;BME280;61545;53.726;-0.444;2024-01-10T01:44:10;1031.5;;;3.8;100.0
73316;BME280;61545;53.726;-0.444;2024-01-10T01:49:10;1031.5;;;3.8;100.0
73316;BME280;61545;53.726;-0.444;2024-01-10T01:54:10;1031.4;;;3.8;100.0
73316;BME280;61545;53.726;-0.444;2024-01-10T01:59:10;1031.4;;;3.9;100.0
73316;BME280;61545;53.726;-0.444;2024-01-10T02:04:10;1031.4;;;3.9;100.0
73316;BME280;61545;53.726;-0.444;2024-01-10T02:09:10;1031.4;;;3.9;100.0
73316;BME280;61545;53.726;-0.444;2024-01-10T02:14:10;1031.4;;;3.9;100.0
73316;BME280;61545;53.726;-0.444;2024-01-10T02:19:19;1031.4;;;4.0;100.0
73316;BME280;61545;53.726;-0.444;2024-01-10T02:24:10;1031.5;;;3.9;100.0
73316;BME280;61545;53.726;-0.444;2024-01-10T02:29:10;1031.4;;;unknown;100.0
73316;BME280;61545;53.726;-0.444;2024-01-10T02:34:10;1031.4;;;4.0;100.0
73316;BME280;61545;53.726;-0.444;2024-01-10T02:39:10;1031.4;;;4.0;100.0
73316;BME280;61545;53.726;-0.444;2024-01-10T02:44:10;1031.4;;;4.0;100.0
73316;BME280;61545;53.726;-0.444;2024-01-10T02:49:10;1031.3;;;4.0;100.0
73316;BME280;61545;53.726;-0.444;2024-01-10T02:54:10;1031.4;;;4.0;100.0
73316;BME280;61545;53.726;-0.444;2024-01-10T02:59:10;1031.3;;;3.9;100.0
73316;BME280;61545;53.726;-0.444;2024-01-10T03:04:10;1031.2;;;3.8;100.0
73316;BME280;61545;53.726;-0.444;2024-01-10T03:09:10;1031.2;;;3.8;100.0
73316;BME280;61545;53.726;-0.444;2024-01-10T03:14:10;1031.2;;;3.9;100.0
73316;BME280;61545;53.726;-0.444;2024-01-10T03:19:10;1031.2;;;3.9;100.0
73316;BME280;61545;53.726;-0.444;2024-01-10T03:24:10;1031.2;;;4.0;100.0
73316;BME280;61545;53.726;-0.444;2024-01-10T03:29:10;1031.2;;;3.9;100.0
73316;BME280;61545;53.726;-0.444;2024-01-10T03:34:10;1031.2;;;3.9;100.0
73316;BME280;61545;53.726;-0.444;2024-01-10T03:39:10;1031.2;;;3.9;100.0
73316;BME280;61545;53.726;-0.444;2024-01-10T03:44:10;1031.2;;;3.8;100.0
73316;BME280;61545;53.726;-0.444;2024-01-10T03:49:10;1031.1;;;3.8;100.0
73316;BME280;61545;53.726;-0.444;2024-01-10T03:54:10;1031.1;;;3.7;100.0
73316;BME280;61545;53.726;-0.444;2024-01-10T03:59:10;1031.0;;;3.8;100.0
73316;BME280;61545;53.726;-0.444;2024-01-10T04:04:10;1030.9;;;3.8;100.0
73316;BME280;61545;53.726;-0.444;2024-01-10T04:09:10;1030.8;;;3.9;100.0
73316;BME280;61545;53.726;-0.444;2024-01-10T04:14:10;1030.8;;;3.8;100.0
73316;BME280;61545;53.726;-0.444;2024-01-10T04:19:10;1030.7;;;3.8;100.0
73316;BME280;61545;53.726;-0.444;2024-01-10T04:24:10;1030.7;;;4.0;100.0
73316;BME280;61545;53.726;-0.444;2024-01-10T04:29:10;1030.7;;;4.1;100.0
73316;BME280;61545;53.726;-0.444;2024-01-10T04:34:10;1030.7;;;4.0;100.0
73316;BME280;61545;53.726;-0.444;2024-01-10T04:39:10;1030.7;;;4.0;100.0
73316;BME280;61545;53.726;-0.444;2024-01-10T04:44:10;1030.6;;;3.9;100.0
73316;BME280;61545;53.726;-0.444;2024-01-10T04:49:10;1030.6;;;unknown;100.0
73316;BME280;61545;53.726;-0.444;2024-01-10T04:54:10;1030.5;;;unknown;100.0
73316;BME280;61545;53.726;-0.444;2024-01-10T04:59:10;1030.5;;;4.0;100.0
73316;BME280;61545;53.726;-0.444;2024-01-10T05:04:10;1030.5;;;4.0;100.0
73316;BME280;61545;53.726;-0.444;2024-01-10T05:09:10;1030.5;;;4.1;100.0
73316;BME280;61545;53.726;-0.444;2024-01-10T05:14:10;1030.4;;;4.1;100.0
73316;BME280;61545;53.726;-0.444;2024-01-10T05:19:10;1030.3;;;4.0;100.0
73316;BME280;61545;53.726;-0.444;2024-01-10T05:24:10;1030.4;;;3.8;100.0
73316;BME280;61545;53.726;-0.444;2024-01-10T05:29:10;1030.3;;;3.9;100.0
73316;BME280;61545;53.726;-0.444;2024-01-10T05:34:10;1030.2;;;3.9;100.0
73316;BME280;61545;53.726;-0.444;2024-01-10T05:39:10;1030.3;;;3.9;100.0
73316;BME280;61545;53.726;-0.444;2024-01-10T05:44:10;1030.3;;;4.0;100.0
73316;BME280;61545;53.726;-0.444;2024-01-10T05:49:10;1030.2;;;4.0;100.0
73316;BME280;61545;53.726;-0.444;2024-01-10T05:54:10;1030.2;;;4.0;100.0
73316;BME280;61545;53.726;-0.444;2024-01-10T05:59:10;1030.2;;;4.0;100.0
73316;BME280;61545;53.726;-0.444;2024-01-10T06:04:10;1030.3;;;4.2;100.0
73316;BME280;61545;53.726;-0.444;2024-01-10T06:09:10;1030.3;;;4.2;100.0
73316;BME280;61545;53.726;-0.444;2024-01-10T06:14:10;1030.2;;;4.0;100.0
73316;BME280;61545;53.726;-0.444;2024-01-10T06:19:10;1030.2;;;4.0;100.0
73316;BME280;61545;53.726;-0.444;2024-01-10T06:24:10;1030.2;;;4.0;100.0
73316;BME280;61545;53.726;-0.444;2024-01-10T06:29:10;1030.2;;;3.8;100.0
73316;BME280;61545;53.726;-0.444;2024-01-10T06:34:10;1030.1;;;3.9;100.0
73316;BME280;61545;53.726;-0.444;2024-01-10T06:39:10;1030.1;;;unknown;100.0
73316;BME280;61545;53.726;-0.444;2024-01-10T06:44:10;1030.1;;;3.8;100.0
73316;BME280;61545;53.726;-0.444;2024-01-10T06:49:10;1030.1;;;3.7;100.0
73316;BME280;61545;53.726;-0.444;2024-01-10T06:54:10;1030.1;;;3.8;100.0
73316;BME280;61545;53.726;-0.444;2024-01-10T06:59:10;1030.1;;;3.7;100.0
73316;BME280;61545;53.726;-0.444;2024-01-10T07:04:10;1030.2;;;3.8;100.0
73316;BME280;61545;53.726;-0.444;2024-01-10T07:09:10;1030.1;;;3.8;100.0
73316;BME280;61545;53.726;-0.444;2024-01-10T07:14:10;1030.1;;;3.6;100.0
73316;BME280;61545;53.726;-0.444;2024-01-10T07:19:10;1030.1;;;3.5;100.0
73316;BME280;61545;53.726;-0.444;2024-01-10T07:24:10;1030.1;;;3.5;100.0
73316;BME280;61545;53.726;-0.444;2024-01-10T07:29:10;1030.2;;;3.4;100.0
73316;BME280;61545;53.726;-0.444;2024-01-10T07:34:10;1030.2;;;3.3;100.0
73316;BME280;61545;53.726;-0.444;2024-01-10T07:39:10;1030.2;;;3.3;100.0
73316;BME280;61545;53.726;-0.444;2024-01-10T07:44:10;1030.2;;;3.3;100.0
73316;BME280;61545;53.726;-0.444;2024-01-10T07:49:10;1030.2;;;3.3;100.0
73316;BME280;61545;53.726;-0.444;2024-01-10T07:54:10;1030.3;;;3.3;100.0
73316;BME280;61545;53.726;-0.444;2024-01-10T07:59:10;1030.2;;;3.3;100.0
73316;BME280;61545;53.726;-0.444;2024-01-10T08:04:10;1030.3;;;3.5;100.0
73316;BME280;61545;53.726;-0.444;2024-01-10T08:09:10;1030.3;;;3.5;100.0
73316;BME280;61545;53.726;-0.444;2024-01-10T08:14:10;1030.3;;;3.6;100.0
73316;BME280;61545;53.726;-0.444;2024-01-10T08:19:10;1030.3;;;3.7;100.0
73316;BME280;61545;53.726;-0.444;2024-01-10T08:24:10;1030.2;;;3.6;100.0
73316;BME280;61545;53.726;-0.444;2024-01-10T08:29:10;1030.3;;;3.6;100.0
73316;BME280;61545;53.726;-0.444;2024-01-10T08:34:10;1030.3;;;3.6;100.0
73316;BME280;61545;53.726;-0.444;2024-01-10T08:39:10;1030.3;;;3.6;100.0
73316;BME280;61545;53.726;-0.444;2024-01-10T08:44:10;1030.3;;;3.7;100.0
73316;BME280;61545;53.726;-0.444;2024-01-10T08:49:10;1030.3;;;3.7;100.0
73316;BME280;61545;53.726;-0.444;2024-01-10T08:54:10;1030.3;;;unknown;100.0
73316;BME280;61545;53.726;-0.444;2024-01-10T08:59:10;1030.3;;;3.7;100.0
73316;BME280;61545;53.726;-0.444;2024-01-10T09:04:10;1030.3;;;3.7;100.0
73316;BME280;61545;53.726;-0.444;2024-01-10T09:09:10;1030.3;;;3.9;100.0
73316;BME280;61545;53.726;-0.444;2024-01-10T09:14:10;1030.3;;;unknown;100.0
73316;BME280;61545;53.726;-0.444;2024-01-10T09:19:10;1030.3;;;3.8;100.0
73316;BME280;61545;53.726;-0.444;2024-01-10T09:24:10;1030.3;;;4.0;100.0
73316;BME280;61545;53.726;-0.444;2024-01-10T09:29:10;1030.3;;;4.0;100.0
73316;BME280;61545;53.726;-0.444;2024-01-10T09:34:10;1030.3;;;unknown;100.0
73316;BME280;61545;53.726;-0.444;2024-01-10T09:39:10;1030.3;;;3.8;100.0
73316;BME280;61545;53.726;-0.444;2024-01-10T09:44:10;1030.2;;;4.0;100.0
73316;BME280;61545;53.726;-0.444;2024-01-10T09:49:10;1030.2;;;4.1;100.0
73316;BME280;61545;53.726;-0.444;2024-01-10T09:54:10;1030.2;;;4.1;100.0
73316;BME280;61545;53.726;-0.444;2024-01-10T09:59:10;1030.2;;;4.1;100.0
73316;BME280;61545;53.726;-0.444;2024-01-10T10:04:11;1030.3;;;4.2;100.0
73316;BME280;61545;53.726;-0.444;2024-01-10T10:09:10;1030.3;;;4.2;100.0
73316;BME280;61545;53.726;-0.444;2024-01-10T10:14:14;1030.3;;;4.3;100.0
73316;BME280;61545;53.726;-0.444;2024-01-10T10:19:10;1030.3;;;4.3;100.0
73316;BME280;61545;53.726;-0.444;2024-01-10T10:24:10;1030.2;;;4.3;100.0
73316;BME280;61545;53.726;-0.444;2024-01-10T10:29:10;1030.2;;;4.5;100.0
73316;BME280;61545;53.726;-0.444;2024-01-10T10:34:10;1030.2;;;4.5;100.0
73316;BME280;61545;53.726;-0.444;2024-01-10T10:39:11;1030.2;;;4.5;100.0
73316;BME280;61545;53.726;-0.444;2024-01-10T10:44:10;1030.1;;;4.6;100.0
73316;BME280;61545;53.726;-0.444;2024-01-10T10:49:11;1030.1;;;4.7;100.0
73316;BME280;61545;53.726;-0.444;2024-01-10T10:54:10;1030.0;;;4.8;100.0
73316;BME280;61545;53.726;-0.444;2024-01-10T10:59:10;1030.0;;;4.8;100.0
73316;BME280;61545;53.726;-0.444;2024-01-10T11:04:10;1029.9;;;4.8;100.0
73316;BME280;61545;53.726;-0.444;2024-01-10T11:09:10;1029.9;;;unknown;100.0
73316;BME280;61545;53.726;-0.444;2024-01-10T11:14:18;1030.0;;;unknown;100.0
73316;BME280;61545;53.726;-0.444;2024-01-10T11:19:19;1029.9;;;5.0;100.0
73316;BME280;61545;53.726;-0.444;2024-01-10T11:24:10;1029.8;;;5.1;100.0
73316;BME280;61545;53.726;-0.444;2024-01-10T11:29:10;1029.9;;;5.1;100.0
73316;BME280;61545;53.726;-0.444;2024-01-10T11:34:10;1029.8;;;5.0;100.0
73316;BME280;61545;53.726;-0.444;2024-01-10T11:39:10;1029.8;;;4.9;100.0
73316;BME280;61545;53.726;-0.444;2024-01-10T11:44:27;1029.9;;;4.9;100.0
73316;BME280;61545;53.726;-0.444;2024-01-10T11:49:10;1029.8;;;4.9;100.0
73316;BME280;61545;53.726;-0.444;2024-01-10T11:54:10;1029.8;;;5.0;100.0
73316;BME280;61545;53.726;-0.444;2024-01-10T11:59:11;1029.8;;;5.1;100.0
73316;BME280;61545;53.726;-0.444;2024-01-10T12:04:10;1029.7;;;5.2;100.0
73316;BME280;61545;53.726;-0.444;2024-01-10T12:09:10;1029.8;;;unknown;100.0
73316;BME280;61545;53.726;-0.444;2024-01-10T12:14:10;1029.8;;;5.1;100.0
73316;BME280;61545;53.726;-0.444;2024-01-10T12:19:10;1029.7;;;unknown;100.0
73316;BME280;61545;53.726;-0.444;2024-01-10T12:24:10;1029.7;;;4.9;100.0
73316;BME280;61545;53.726;-0.444;2024-01-10T12:29:10;1029.6;;;5.0;100.0
73316;BME280;61545;53.726;-0.444;2024-01-10T12:34:10;1029.5;;;5.0;100.0
73316;BME280;61545;53.726;-0.444;2024-01-10T12:39:11;1029.4;;;5.2;100.0
73316;BME280;61545;53.726;-0.444;2024-01-10T12:44:11;1029.4;;;5.3;100.0
73316;BME280;61545;53.726;-0.444;2024-01-10T12:49:10;1029.3;;;5.5;100.0
73316;BME280;61545;53.726;-0.444;2024-01-10T12:54:10;1029.3;;;5.5;100.0
73316;BME280;61545;53.726;-0.444;2024-01-10T12:59:10;1029.3;;;5.6;100.0
73316;BME280;61545;53.726;-0.444;2024-01-10T13:04:10;1029.2;;;unknown;100.0
73316;BME280;61545;53.726;-0.444;2024-01-10T13:09:10;1029.2;;;5.3;100.0
73316;BME280;61545;53.726;-0.444;2024-01-10T13:14:11;1029.2;;;5.3;100.0
73316;BME280;61545;53.726;-0.444;2024-01-10T13:19:10;1029.2;;;5.3;100.0
73316;BME280;61545;53.726;-0.444;2024-01-10T13:24:10;1029.3;;;5.3;100.0
73316;BME280;61545;53.726;-0.444;2024-01-10T13:29:10;1029.3;;;5.4;100.0
73316;BME280;61545;53.726;-0.444;2024-01-10T13:34:10;1029.3;;;5.3;100.0
73316;BME280;61545;53.726;-0.444;2024-01-10T13:39:10;1029.2;;;5.3;100.0
73316;BME280;61545;53.726;-0.444;2024-01-10T13:44:10;1029.3;;;5.2;100.0
73316;BME280;61545;53.726;-0.444;2024-01-10T13:49:10;1029.2;;;5.2;100.0
73316;BME280;61545;53.726;-0.444;2024-01-10T13:54:10;1029.2;;;5.2;100.0
73316;BME280;61545;53.726;-0.444;2024-01-10T13:59:10;1029.1;;;unknown;100.0
73316;BME280;61545;53.726;-0.444;2024-01-10T14:04:10;1029.2;;;5.2;100.0
73316;BME280;61545;53.726;-0.444;2024-01-10T14:09:10;1029.1;;;unknown;100.0
73316;BME280;61545;53.726;-0.444;2024-01-10T14:14:10;1029.1;;;5.3;100.0
73316;BME280;61545;53.726;-0.444;2024-01-10T14:19:10;1029.1;;;5.3;100.0
73316;BME280;61545;53.726;-0.444;2024-01-10T14:24:10;1029.0;;;5.4;100.0
73316;BME280;61545;53.726;-0.444;2024-01-10T14:29:10;1029.1;;;5.4;100.0
73316;BME280;61545;53.726;-0.444;2024-01-10T14:34:10;1029.0;;;5.3;100.0
73316;BME280;61545;53.726;-0.444;2024-01-10T14:39:10;1029.1;;;5.2;100.0
73316;BME280;61545;53.726;-0.444;2024-01-10T14:44:10;1029.0;;;5.2;100.0
73316;BME280;61545;53.726;-0.444;2024-01-10T14:49:10;1029.1;;;5.3;100.0
73316;BME280;61545;53.726;-0.444;2024-01-10T14:54:10;1029.1;;;unknown;100.0
73316;BME280;61545;53.726;-0.444;2024-01-10T14:59:10;1029.2;;;5.2;100.0
73316;BME280;61545;53.726;-0.444;2024-01-10T15:04:10;1029.1;;;5.0;100.0
73316;BME280;61545;53.726;-0.444;2024-01-10T15:09:10;1029.1;;;5.1;100.0
73316;BME280;61545;53.726;-0.444;2024-01-10T15:14:10;1029.1;;;5.0;100.0
73316;BME280;61545;53.726;-0.444;2024-01-10T15:19:10;1029.1;;;4.9;100.0
73316;BME280;61545;53.726;-0.444;2024-01-10T15:24:10;1029.1;;;5.0;100.0
73316;BME280;61545;53.726;-0.444;2024-01-10T15:29:10;1029.1;;;4.9;100.0
73316;BME280;61545;53.726;-0.444;2024-01-10T15:34:11;1029.1;;;4.9;100.0
73316;BME280;61545;53.726;-0.444;2024-01-10T15:39:10;1029.2;;;4.8;100.0
73316;BME280;61545;53.726;-0.444;2024-01-10T15:44:10;1029.2;;;5.0;100.0
73316;BME280;61545;53.726;-0.444;2024-01-10T15:49:11;1029.2;;;5.0;100.0
73316;BME280;61545;53.726;-0.444;2024-01-10T15:54:11;1029.2;;;5.0;100.0
73316;BME280;61545;53.726;-0.444;2024-01-10T15:59:10;1029.2;;;5.0;100.0
73316;BME280;61545;53.726;-0.444;2024-01-10T16:04:10;1029.3;;;4.9;100.0
73316;BME280;61545;53.726;-0.444;2024-01-10T16:09:10;1029.3;;;4.9;100.0
73316;BME280;61545;53.726;-0.444;2024-01-10T16:14:10;1029.3;;;4.9;100.0
73316;BME280;61545;53.726;-0.444;2024-01-10T16:19:10;1029.3;;;4.8;100.0
73316;BME280;61545;53.726;-0.444;2024-01-10T16:24:12;1029.4;;;4.7;100.0
73316;BME280;61545;53.726;-0.444;2024-01-10T16:29:10;1029.4;;;4.7;100.0
73316;BME280;61545;53.726;-0.444;2024-01-10T16:34:10;1029.4;;;unknown;100.0
73316;BME280;61545;53.726;-0.444;2024-01-10T16:39:10;1029.5;;;4.7;100.0
73316;BME280;61545;53.726;-0.444;2024-01-10T16:44:10;1029.5;;;4.7;100.0
73316;BME280;61545;53.726;-0.444;2024-01-10T16:49:10;1029.6;;;4.7;100.0
73316;BME280;61545;53.726;-0.444;2024-01-10T16:54:11;1029.7;;;4.7;100.0
73316;BME280;61545;53.726;-0.444;2024-01-10T16:59:10;1029.7;;;unknown;100.0
73316;BME280;61545;53.726;-0.444;2024-01-10T17:04:10;1029.7;;;4.7;100.0
73316;BME280;61545;53.726;-0.444;2024-01-10T17:09:10;1029.8;;;4.7;100.0
73316;BME280;61545;53.726;-0.444;2024-01-10T17:14:11;1029.8;;;4.8;100.0
73316;BME280;61545;53.726;-0.444;2024-01-10T17:19:10;1029.8;;;unknown;100.0
73316;BME280;61545;53.726;-0.444;2024-01-10T17:24:10;1029.8;;;4.8;100.0
73316;BME280;61545;53.726;-0.444;2024-01-10T17:29:10;1029.8;;;4.8;100.0
73316;BME280;61545;53.726;-0.444;2024-01-10T17:34:10;1029.8;;;4.8;100.0
73316;BME280;61545;53.726;-0.444;2024-01-10T17:39:10;1029.9;;;unknown;100.0
73316;BME280;61545;53.726;-0.444;2024-01-10T17:44:10;1030.0;;;4.8;100.0
73316;BME280;61545;53.726;-0.444;2024-01-10T17:49:10;1030.1;;;4.8;100.0
73316;BME280;61545;53.726;-0.444;2024-01-10T17:54:11;1030.2;;;unknown;100.0
73316;BME280;61545;53.726;-0.444;2024-01-10T17:59:10;1030.1;;;unknown;100.0
73316;BME280;61545;53.726;-0.444;2024-01-10T18:04:10;1030.2;;;unknown;100.0
73316;BME280;61545;53.726;-0.444;2024-01-10T18:09:12;1030.2;;;4.8;100.0
73316;BME280;61545;53.726;-0.444;2024-01-10T18:14:10;1030.3;;;4.7;100.0
73316;BME280;61545;53.726;-0.444;2024-01-10T18:19:10;1030.2;;;4.7;100.0
73316;BME280;61545;53.726;-0.444;2024-01-10T18:24:10;1030.3;;;4.7;100.0
73316;BME280;61545;53.726;-0.444;2024-01-10T18:29:11;1030.4;;;4.7;100.0
73316;BME280;61545;53.726;-0.444;2024-01-10T18:34:10;1030.3;;;4.7;100.0
73316;BME280;61545;53.726;-0.444;2024-01-10T18:39:11;1030.3;;;4.7;100.0
73316;BME280;61545;53.726;-0.444;2024-01-10T18:44:11;1030.3;;;unknown;100.0
73316;BME280;61545;53.726;-0.444;2024-01-10T18:49:11;1030.3;;;4.6;100.0
73316;BME280;61545;53.726;-0.444;2024-01-10T18:54:10;1030.3;;;4.6;100.0
73316;BME280;61545;53.726;-0.444;2024-01-10T18:59:11;1030.4;;;unknown;100.0
73316;BME280;61545;53.726;-0.444;2024-01-10T19:04:11;1030.4;;;4.7;100.0
73316;BME280;61545;53.726;-0.444;2024-01-10T19:09:11;1030.5;;;4.7;100.0
73316;BME280;61545;53.726;-0.444;2024-01-10T19:14:10;1030.6;;;4.7;100.0
73316;BME280;61545;53.726;-0.444;2024-01-10T19:19:11;1030.6;;;4.7;100.0
73316;BME280;61545;53.726;-0.444;2024-01-10T19:24:11;1030.7;;;4.7;100.0
73316;BME280;61545;53.726;-0.444;2024-01-10T19:29:11;1030.8;;;unknown;100.0
73316;BME280;61545;53.726;-0.444;2024-01-10T19:34:11;1030.8;;;4.8;100.0
73316;BME280;61545;53.726;-0.444;2024-01-10T19:39:11;1030.7;;;4.8;100.0
73316;BME280;61545;53.726;-0.444;2024-01-10T19:44:11;1030.8;;;unknown;100.0
73316;BME280;61545;53.726;-0.444;2024-01-10T19:49:11;1030.7;;;4.8;100.0
73316;BME280;61545;53.726;-0.444;2024-01-10T19:54:11;1030.8;;;4.7;100.0
73316;BME280;61545;53.726;-0.444;2024-01-10T19:59:11;1030.9;;;4.8;100.0
73316;BME280;61545;53.726;-0.444;2024-01-10T20:04:11;1030.9;;;4.8;100.0
73316;BME280;61545;53.726;-0.444;2024-01-10T20:09:11;1030.9;;;unknown;100.0
73316;BME280;61545;53.726;-0.444;2024-01-10T20:14:11;1031.0;;;4.8;100.0
73316;BME280;61545;53.726;-0.444;2024-01-10T20:19:11;1031.1;;;unknown;100.0
73316;BME280;61545;53.726;-0.444;2024-01-10T20:24:11;1031.1;;;unknown;100.0
73316;BME280;61545;53.726;-0.444;2024-01-10T20:29:11;1031.2;;;4.7;100.0
73316;BME280;61545;53.726;-0.444;2024-01-10T20:34:11;1031.2;;;4.7;100.0
73316;BME280;61545;53.726;-0.444;2024-01-10T20:39:11;1031.2;;;4.7;100.0
73316;BME280;61545;53.726;-0.444;2024-01-10T20:44:11;1031.2;;;4.7;100.0
73316;BME280;61545;53.726;-0.444;2024-01-10T20:49:11;1031.3;;;4.8;100.0
73316;BME280;61545;53.726;-0.444;2024-01-10T20:54:11;1031.3;;;4.7;100.0
73316;BME280;61545;53.726;-0.444;2024-01-10T20:59:11;1031.3;;;4.6;100.0
73316;BME280;61545;53.726;-0.444;2024-01-10T21:04:11;1031.4;;;4.7;100.0
73316;BME280;61545;53.726;-0.444;2024-01-10T21:09:11;1031.5;;;4.7;100.0
73316;BME280;61545;53.726;-0.444;2024-01-10T21:14:11;1031.5;;;4.7;100.0
73316;BME280;61545;53.726;-0.444;2024-01-10T21:19:11;1031.5;;;unknown;100.0
73316;BME280;61545;53.726;-0.444;2024-01-10T21:24:11;1031.5;;;4.7;100.0
73316;BME280;61545;53.726;-0.444;2024-01-10T21:29:11;1031.6;;;unknown;100.0
73316;BME280;61545;53.726;-0.444;2024-01-10T21:34:11;1031.7;;;4.7;100.0
73316;BME280;61545;53.726;-0.444;2024-01-10T21:39:11;1031.7;;;4.7;100.0
73316;BME280;61545;53.726;-0.444;2024-01-10T21:44:11;1031.7;;;4.7;100.0
73316;BME280;61545;53.726;-0.444;2024-01-10T21:49:11;1031.7;;;4.7;100.0
73316;BME280;61545;53.726;-0.444;2024-01-10T21:54:11;1031.8;;;4.7;100.0
73316;BME280;61545;53.726;-0.444;2024-01-10T21:59:11;1031.7;;;4.7;100.0
73316;BME280;61545;53.726;-0.444;2024-01-10T22:04:11;1031.8;;;4.7;100.0
73316;BME280;61545;53.726;-0.444;2024-01-10T22:09:11;1031.9;;;4.7;100.0
73316;BME280;61545;53.726;-0.444;2024-01-10T22:14:11;1031.9;;;unknown;100.0
73316;BME280;61545;53.726;-0.444;2024-01-10T22:19:11;1032.0;;;4.7;100.0
73316;BME280;61545;53.726;-0.444;2024-01-10T22:24:11;1032.0;;;unknown;100.0
73316;BME280;61545;53.726;-0.444;2024-01-10T22:29:11;1032.1;;;4.7;100.0
73316;BME280;61545;53.726;-0.444;2024-01-10T22:34:11;1032.2;;;unknown;100.0
73316;BME280;61545;53.726;-0.444;2024-01-10T22:39:11;1032.2;;;4.7;100.0
73316;BME280;61545;53.726;-0.444;2024-01-10T22:44:11;1032.2;;;4.6;100.0
73316;BME280;61545;53.726;-0.444;2024-01-10T22:49:11;1032.3;;;4.6;100.0
73316;BME280;61545;53.726;-0.444;2024-01-10T22:54:12;1032.3;;;4.6;100.0
73316;BME280;61545;53.726;-0.444;2024-01-10T22:59:11;1032.4;;;4.5;100.0
73316;BME280;61545;53.726;-0.444;2024-01-10T23:04:11;1032.4;;;4.5;100.0
73316;BME280;61545;53.726;-0.444;2024-01-10T23:09:11;1032.4;;;4.5;100.0
73316;BME280;61545;53.726;-0.444;2024-01-10T23:14:11;1032.3;;;4.7;100.0
73316;BME280;61545;53.726;-0.444;2024-01-10T23:19:11;1032.4;;;unknown;100.0
73316;BME280;61545;53.726;-0.444;2024-01-10T23:24:11;1032.5;;;unknown;100.0
73316;BME280;61545;53.726;-0.444;2024-01-10T23:29:11;1032.5;;;unknown;100.0
73316;BME280;61545;53.726;-0.444;2024-01-10T23:34:11;1032.5;;;4.5;100.0
73316;BME280;61545;53.726;-0.444;2024-01-10T23:39:11;1032.6;;;unknown;100.0
73316;BME280;61545;53.726;-0.444;2024-01-10T23:44:11;1032.7;;;unknown;100.0
73316;BME280;61545;53.726;-0.444;2024-01-10T23:49:11;1032.7;;;4.5;100.0
73316;BME280;61545;53.726;-0.444;2024-01-10T23:54:11;1032.8;;;4.5;100.0
73316;BME280;61545;53.726;-0.444;2024-01-10T23:59:11;1032.8;;;4.5;100.0
